sensor_id;sensor_type;location;lat;lon;timestamp;pressure;altitude;pressure_sealevel;temperature;humidity
42125;BME280;27787;44.594;11.046;2023-03-22T00:01:29;101015.41;;;12.26;89.20
42125;BME280;27787;44.594;11.046;2023-03-22T00:04:15;101009.22;;;12.26;89.08
42125;BME280;27787;44.594;11.046;2023-03-22T00:06:59;101014.50;;;12.26;89.14
42125;BME280;27787;44.594;11.046;2023-03-22T00:09:43;101010.94;;;12.24;88.93
42125;BME280;27787;44.594;11.046;2023-03-22T00:12:28;101022.41;;;12.23;88.98
42125;BME280;27787;44.594;11.046;2023-03-22T00:15:12;101022.41;;;12.23;88.90
42125;BME280;27787;44.594;11.046;2023-03-22T00:17:56;101027.72;;;12.23;88.77
42125;BME280;27787;44.594;11.046;2023-03-22T00:20:49;101019.75;;;12.20;88.02
42125;BME280;27787;44.594;11.046;2023-03-22T00:23:33;101025.03;;;12.14;87.95
42125;BME280;27787;44.594;11.046;2023-03-22T00:26:17;101012.69;;;12.11;88.31
42125;BME280;27787;44.594;11.046;2023-03-22T00:29:01;101018.84;;;12.12;88.30
42125;BME280;27787;44.594;11.046;2023-03-22T00:31:45;101017.09;;;12.12;88.29
42125;BME280;27787;44.594;11.046;2023-03-22T00:34:31;101025.03;;;12.12;88.60
42125;BME280;27787;44.594;11.046;2023-03-22T00:37:15;101023.28;;;12.20;88.10
42125;BME280;27787;44.594;11.046;2023-03-22T00:40:00;101017.16;;;12.26;87.48
42125;BME280;27787;44.594;11.046;2023-03-22T00:42:43;101018.03;;;12.28;86.75
42125;BME280;27787;44.594;11.046;2023-03-22T00:45:28;101010.94;;;12.22;86.87
42125;BME280;27787;44.594;11.046;2023-03-22T00:48:12;101010.03;;;12.17;87.37
42125;BME280;27787;44.594;11.046;2023-03-22T00:50:57;101005.63;;;12.13;87.61
42125;BME280;27787;44.594;11.046;2023-03-22T00:53:41;101007.34;;;12.09;87.81
42125;BME280;27787;44.594;11.046;2023-03-22T00:56:26;101000.28;;;12.05;87.83
42125;BME280;27787;44.594;11.046;2023-03-22T00:59:25;100998.50;;;12.00;88.33
42125;BME280;27787;44.594;11.046;2023-03-22T01:02:11;100991.41;;;11.96;88.58
42125;BME280;27787;44.594;11.046;2023-03-22T01:04:58;100994.94;;;11.95;88.50
42125;BME280;27787;44.594;11.046;2023-03-22T01:07:43;100997.56;;;11.96;88.64
42125;BME280;27787;44.594;11.046;2023-03-22T01:10:28;100997.56;;;11.93;88.79
42125;BME280;27787;44.594;11.046;2023-03-22T01:13:12;100987.00;;;11.93;89.20
42125;BME280;27787;44.594;11.046;2023-03-22T01:15:56;100986.09;;;11.91;89.12
42125;BME280;27787;44.594;11.046;2023-03-22T01:18:40;100979.03;;;11.90;89.44
42125;BME280;27787;44.594;11.046;2023-03-22T01:21:25;100979.94;;;11.89;89.16
42125;BME280;27787;44.594;11.046;2023-03-22T01:24:09;100978.16;;;11.90;89.11
42125;BME280;27787;44.594;11.046;2023-03-22T01:26:54;100986.97;;;11.89;89.08
42125;BME280;27787;44.594;11.046;2023-03-22T01:29:39;100981.69;;;11.90;88.88
42125;BME280;27787;44.594;11.046;2023-03-22T01:32:23;100981.69;;;11.90;88.66
42125;BME280;27787;44.594;11.046;2023-03-22T01:35:09;100971.97;;;11.88;88.78
42125;BME280;27787;44.594;11.046;2023-03-22T01:37:54;100981.69;;;11.87;88.54
42125;BME280;27787;44.594;11.046;2023-03-22T01:40:38;100978.97;;;11.81;88.55
42125;BME280;27787;44.594;11.046;2023-03-22T01:43:23;100967.47;;;11.77;89.07
42125;BME280;27787;44.594;11.046;2023-03-22T01:46:07;100976.28;;;11.78;88.88
42125;BME280;27787;44.594;11.046;2023-03-22T01:48:52;100974.53;;;11.74;88.78
42125;BME280;27787;44.594;11.046;2023-03-22T01:51:38;100970.94;;;11.70;89.25
42125;BME280;27787;44.594;11.046;2023-03-22T01:54:44;100965.66;;;11.70;89.01
42125;BME280;27787;44.594;11.046;2023-03-22T01:57:47;100975.41;;;11.73;88.84
42125;BME280;27787;44.594;11.046;2023-03-22T02:00:38;100968.34;;;11.76;88.74
42125;BME280;27787;44.594;11.046;2023-03-22T02:03:47;100972.81;;;11.79;88.34
42125;BME280;27787;44.594;11.046;2023-03-22T02:06:37;100967.53;;;11.80;87.91
42125;BME280;27787;44.594;11.046;2023-03-22T02:09:26;100970.16;;;11.82;87.68
42125;BME280;27787;44.594;11.046;2023-03-22T02:12:35;100973.69;;;11.81;87.53
42125;BME280;27787;44.594;11.046;2023-03-22T02:15:45;100965.75;;;11.81;87.74
42125;BME280;27787;44.594;11.046;2023-03-22T02:24:44;100967.59;;;11.94;86.26
42125;BME280;27787;44.594;11.046;2023-03-22T02:28:11;100971.09;;;11.87;86.72
42125;BME280;27787;44.594;11.046;2023-03-22T02:31:12;100965.75;;;11.81;86.78
42125;BME280;27787;44.594;11.046;2023-03-22T02:40:30;100974.53;;;11.74;86.87
42125;BME280;27787;44.594;11.046;2023-03-22T02:43:31;100967.41;;;11.71;87.40
42125;BME280;27787;44.594;11.046;2023-03-22T02:58:03;100961.25;;;11.69;86.79
42125;BME280;27787;44.594;11.046;2023-03-22T03:00:53;100963.00;;;11.70;86.85
42125;BME280;27787;44.594;11.046;2023-03-22T03:03:38;100965.66;;;11.70;86.96
42125;BME280;27787;44.594;11.046;2023-03-22T03:06:24;100971.81;;;11.71;87.15
42125;BME280;27787;44.594;11.046;2023-03-22T03:09:13;100979.81;;;11.78;86.72
42125;BME280;27787;44.594;11.046;2023-03-22T03:12:01;100975.50;;;11.88;85.56
42125;BME280;27787;44.594;11.046;2023-03-22T03:14:46;100980.81;;;11.88;85.24
42125;BME280;27787;44.594;11.046;2023-03-22T03:29:33;100991.31;;;11.79;85.18
42125;BME280;27787;44.594;11.046;2023-03-22T03:32:33;100985.94;;;11.71;85.85
42125;BME280;27787;44.594;11.046;2023-03-22T03:35:30;100994.72;;;11.66;86.51
42125;BME280;27787;44.594;11.046;2023-03-22T03:38:19;100989.41;;;11.61;86.97
42125;BME280;27787;44.594;11.046;2023-03-22T03:41:07;100991.13;;;11.56;86.69
42125;BME280;27787;44.594;11.046;2023-03-22T03:43:53;100999.03;;;11.51;87.45
42125;BME280;27787;44.594;11.046;2023-03-22T03:46:40;101002.53;;;11.46;87.94
42125;BME280;27787;44.594;11.046;2023-03-22T03:49:24;101000.72;;;11.42;88.16
42125;BME280;27787;44.594;11.046;2023-03-22T03:52:10;101010.38;;;11.38;88.53
42125;BME280;27787;44.594;11.046;2023-03-22T03:54:54;101005.09;;;11.38;88.77
42125;BME280;27787;44.594;11.046;2023-03-22T03:57:44;101012.19;;;11.42;88.74
42125;BME280;27787;44.594;11.046;2023-03-22T04:00:28;101014.88;;;11.47;88.59
42125;BME280;27787;44.594;11.046;2023-03-22T04:03:45;101019.31;;;11.51;88.15
42125;BME280;27787;44.594;11.046;2023-03-22T04:06:39;101021.94;;;11.49;87.95
42125;BME280;27787;44.594;11.046;2023-03-22T04:09:34;101011.31;;;11.45;88.03
42125;BME280;27787;44.594;11.046;2023-03-22T04:12:27;101013.06;;;11.43;88.53
42125;BME280;27787;44.594;11.046;2023-03-22T04:15:29;101011.38;;;11.52;88.58
42125;BME280;27787;44.594;11.046;2023-03-22T04:18:16;101013.25;;;11.69;88.31
42125;BME280;27787;44.594;11.046;2023-03-22T04:21:00;101010.72;;;11.81;87.45
42125;BME280;27787;44.594;11.046;2023-03-22T04:23:50;101009.03;;;11.89;86.79
42125;BME280;27787;44.594;11.046;2023-03-22T04:26:35;101014.31;;;11.94;85.98
42125;BME280;27787;44.594;11.046;2023-03-22T04:29:51;101012.56;;;11.93;86.01
42125;BME280;27787;44.594;11.046;2023-03-22T04:33:02;101014.25;;;11.83;85.80
42125;BME280;27787;44.594;11.046;2023-03-22T04:36:10;101021.22;;;11.72;86.41
42125;BME280;27787;44.594;11.046;2023-03-22T04:39:10;101024.63;;;11.57;86.70
42125;BME280;27787;44.594;11.046;2023-03-22T04:41:56;101024.56;;;11.48;88.07
42125;BME280;27787;44.594;11.046;2023-03-22T04:44:41;101029.81;;;11.43;87.98
42125;BME280;27787;44.594;11.046;2023-03-22T04:47:25;101021.88;;;11.43;88.70
42125;BME280;27787;44.594;11.046;2023-03-22T04:50:09;101023.69;;;11.46;88.38
42125;BME280;27787;44.594;11.046;2023-03-22T04:53:02;101023.63;;;11.41;88.17
42125;BME280;27787;44.594;11.046;2023-03-22T04:55:48;101023.59;;;11.37;88.58
42125;BME280;27787;44.594;11.046;2023-03-22T04:58:35;101030.56;;;11.29;88.77
42125;BME280;27787;44.594;11.046;2023-03-22T05:01:21;101027.84;;;11.19;89.59
42125;BME280;27787;44.594;11.046;2023-03-22T05:04:14;101027.78;;;11.10;89.91
42125;BME280;27787;44.594;11.046;2023-03-22T05:06:59;101030.41;;;11.10;91.06
42125;BME280;27787;44.594;11.046;2023-03-22T05:09:51;101032.22;;;11.17;91.11
42125;BME280;27787;44.594;11.046;2023-03-22T05:12:35;101027.84;;;11.19;90.99
42125;BME280;27787;44.594;11.046;2023-03-22T05:15:31;101033.97;;;11.17;90.68
42125;BME280;27787;44.594;11.046;2023-03-22T05:18:19;101034.84;;;11.13;90.48
42125;BME280;27787;44.594;11.046;2023-03-22T05:21:04;101031.31;;;11.12;90.61
42125;BME280;27787;44.594;11.046;2023-03-22T05:23:50;101034.84;;;11.13;90.53
42125;BME280;27787;44.594;11.046;2023-03-22T05:26:34;101032.19;;;11.13;90.76
42125;BME280;27787;44.594;11.046;2023-03-22T05:29:21;101035.72;;;11.12;91.13
42125;BME280;27787;44.594;11.046;2023-03-22T05:32:22;101040.16;;;11.19;91.65
42125;BME280;27787;44.594;11.046;2023-03-22T05:35:10;101041.13;;;11.27;91.47
42125;BME280;27787;44.594;11.046;2023-03-22T05:37:59;101038.50;;;11.30;91.56
42125;BME280;27787;44.594;11.046;2023-03-22T05:40:46;101044.72;;;11.34;91.11
42125;BME280;27787;44.594;11.046;2023-03-22T05:43:30;101045.63;;;11.36;91.09
42125;BME280;27787;44.594;11.046;2023-03-22T05:46:16;101049.09;;;11.32;91.05
42125;BME280;27787;44.594;11.046;2023-03-22T05:49:25;101056.13;;;11.31;90.97
42125;BME280;27787;44.594;11.046;2023-03-22T05:52:10;101055.22;;;11.29;90.77
42125;BME280;27787;44.594;11.046;2023-03-22T05:55:06;101052.59;;;11.28;90.61
42125;BME280;27787;44.594;11.046;2023-03-22T05:57:51;101056.97;;;11.24;90.84
42125;BME280;27787;44.594;11.046;2023-03-22T06:00:41;101056.06;;;11.23;91.16
42125;BME280;27787;44.594;11.046;2023-03-22T06:03:38;101056.91;;;11.19;90.83
42125;BME280;27787;44.594;11.046;2023-03-22T06:06:37;101058.59;;;11.11;91.00
42125;BME280;27787;44.594;11.046;2023-03-22T06:09:28;101062.88;;;11.00;91.70
42125;BME280;27787;44.594;11.046;2023-03-22T06:12:14;101057.56;;;10.96;92.50
42125;BME280;27787;44.594;11.046;2023-03-22T06:15:02;101069.94;;;11.01;92.94
42125;BME280;27787;44.594;11.046;2023-03-22T06:17:52;101058.63;;;11.13;92.44
42125;BME280;27787;44.594;11.046;2023-03-22T06:20:41;101064.88;;;11.24;91.79
42125;BME280;27787;44.594;11.046;2023-03-22T06:23:32;101064.97;;;11.33;91.15
42125;BME280;27787;44.594;11.046;2023-03-22T06:26:16;101065.91;;;11.40;91.02
42125;BME280;27787;44.594;11.046;2023-03-22T06:29:01;101058.94;;;11.48;90.40
42125;BME280;27787;44.594;11.046;2023-03-22T06:31:47;101070.44;;;11.58;89.75
42125;BME280;27787;44.594;11.046;2023-03-22T06:34:32;101059.94;;;11.62;89.42
42125;BME280;27787;44.594;11.046;2023-03-22T06:37:18;101059.97;;;11.68;89.22
42125;BME280;27787;44.594;11.046;2023-03-22T06:40:03;101061.72;;;11.65;88.70
42125;BME280;27787;44.594;11.046;2023-03-22T06:42:47;101073.09;;;11.58;89.86
42125;BME280;27787;44.594;11.046;2023-03-22T06:45:34;101077.47;;;11.52;90.25
42125;BME280;27787;44.594;11.046;2023-03-22T06:48:20;101079.22;;;11.47;90.85
42125;BME280;27787;44.594;11.046;2023-03-22T06:51:13;101080.09;;;11.51;91.07
42125;BME280;27787;44.594;11.046;2023-03-22T06:53:58;101081.91;;;11.58;90.50
42125;BME280;27787;44.594;11.046;2023-03-22T06:56:42;101080.22;;;11.62;90.72
42125;BME280;27787;44.594;11.046;2023-03-22T06:59:27;101081.13;;;11.67;90.53
42125;BME280;27787;44.594;11.046;2023-03-22T07:02:12;101082.94;;;11.74;90.05
42125;BME280;27787;44.594;11.046;2023-03-22T07:04:59;101082.16;;;11.84;89.48
42125;BME280;27787;44.594;11.046;2023-03-22T07:07:43;101082.19;;;11.87;88.70
42125;BME280;27787;44.594;11.046;2023-03-22T07:10:28;101088.38;;;11.88;89.27
42125;BME280;27787;44.594;11.046;2023-03-22T07:13:13;101083.09;;;11.89;89.62
42125;BME280;27787;44.594;11.046;2023-03-22T07:15:59;101087.50;;;11.90;88.67
42125;BME280;27787;44.594;11.046;2023-03-22T07:18:51;101086.66;;;11.97;88.95
42125;BME280;27787;44.594;11.046;2023-03-22T07:21:36;101090.25;;;12.05;89.19
42125;BME280;27787;44.594;11.046;2023-03-22T07:24:24;101092.09;;;12.19;89.15
42125;BME280;27787;44.594;11.046;2023-03-22T07:27:08;101086.88;;;12.34;88.73
42125;BME280;27787;44.594;11.046;2023-03-22T07:29:52;101086.94;;;12.43;88.11
42125;BME280;27787;44.594;11.046;2023-03-22T07:32:40;101083.47;;;12.53;88.30
42125;BME280;27787;44.594;11.046;2023-03-22T07:35:30;101083.47;;;12.62;88.06
42125;BME280;27787;44.594;11.046;2023-03-22T07:38:14;101087.06;;;12.70;87.95
42125;BME280;27787;44.594;11.046;2023-03-22T07:40:58;101095.03;;;12.78;88.08
42125;BME280;27787;44.594;11.046;2023-03-22T07:43:54;101094.16;;;12.84;87.36
42125;BME280;27787;44.594;11.046;2023-03-22T07:46:40;101098.63;;;12.89;86.61
42125;BME280;27787;44.594;11.046;2023-03-22T07:49:37;101099.50;;;12.93;84.84
42125;BME280;27787;44.594;11.046;2023-03-22T07:52:26;101101.28;;;12.97;84.29
42125;BME280;27787;44.594;11.046;2023-03-22T07:55:13;101091.59;;;13.02;83.53
42125;BME280;27787;44.594;11.046;2023-03-22T07:57:57;101096.91;;;13.10;83.19
42125;BME280;27787;44.594;11.046;2023-03-22T08:00:41;101089.00;;;13.19;82.98
42125;BME280;27787;44.594;11.046;2023-03-22T08:03:58;101094.34;;;13.31;82.68
42125;BME280;27787;44.594;11.046;2023-03-22T08:07:01;101096.97;;;13.39;81.78
42125;BME280;27787;44.594;11.046;2023-03-22T08:09:45;101091.66;;;13.40;80.03
42125;BME280;27787;44.594;11.046;2023-03-22T08:12:30;101092.56;;;13.45;80.18
42125;BME280;27787;44.594;11.046;2023-03-22T08:15:31;101089.91;;;13.53;79.99
42125;BME280;27787;44.594;11.046;2023-03-22T08:18:15;101087.28;;;13.59;79.74
42125;BME280;27787;44.594;11.046;2023-03-22T08:21:01;101080.22;;;13.67;79.35
42125;BME280;27787;44.594;11.046;2023-03-22T08:23:49;101084.63;;;13.76;79.05
42125;BME280;27787;44.594;11.046;2023-03-22T08:26:52;101083.72;;;13.78;78.16
42125;BME280;27787;44.594;11.046;2023-03-22T08:29:47;101091.72;;;13.81;78.57
42125;BME280;27787;44.594;11.046;2023-03-22T08:32:32;101089.03;;;13.87;79.04
42125;BME280;27787;44.594;11.046;2023-03-22T08:35:17;101088.13;;;13.93;79.21
42125;BME280;27787;44.594;11.046;2023-03-22T08:38:01;101095.22;;;13.99;78.98
42125;BME280;27787;44.594;11.046;2023-03-22T08:40:55;101094.31;;;14.04;79.25
42125;BME280;27787;44.594;11.046;2023-03-22T08:43:42;101089.88;;;14.11;78.86
42125;BME280;27787;44.594;11.046;2023-03-22T08:46:26;101091.63;;;14.16;78.20
42125;BME280;27787;44.594;11.046;2023-03-22T08:49:10;101096.06;;;14.24;77.37
42125;BME280;27787;44.594;11.046;2023-03-22T08:52:06;101099.56;;;14.30;77.06
42125;BME280;27787;44.594;11.046;2023-03-22T08:55:15;101099.56;;;14.35;76.06
42125;BME280;27787;44.594;11.046;2023-03-22T08:58:19;101106.66;;;14.48;79.66
42125;BME280;27787;44.594;11.046;2023-03-22T09:01:26;101107.53;;;14.52;79.57
42125;BME280;27787;44.594;11.046;2023-03-22T09:04:15;101101.31;;;14.53;79.04
42125;BME280;27787;44.594;11.046;2023-03-22T09:06:59;101108.38;;;14.55;78.83
42125;BME280;27787;44.594;11.046;2023-03-22T09:09:44;101103.06;;;14.58;78.18
42125;BME280;27787;44.594;11.046;2023-03-22T09:12:29;101105.72;;;14.60;77.47
42125;BME280;27787;44.594;11.046;2023-03-22T09:15:14;101111.03;;;14.64;77.30
42125;BME280;27787;44.594;11.046;2023-03-22T09:18:02;101102.13;;;14.73;77.43
42125;BME280;27787;44.594;11.046;2023-03-22T09:20:46;101096.81;;;14.76;77.98
42125;BME280;27787;44.594;11.046;2023-03-22T09:23:35;101100.34;;;14.77;78.03
42125;BME280;27787;44.594;11.046;2023-03-22T09:26:21;101116.25;;;14.81;78.02
42125;BME280;27787;44.594;11.046;2023-03-22T09:29:09;101110.94;;;14.87;78.41
42125;BME280;27787;44.594;11.046;2023-03-22T09:31:53;101110.91;;;14.90;77.55
42125;BME280;27787;44.594;11.046;2023-03-22T09:34:42;101110.00;;;14.94;77.28
42125;BME280;27787;44.594;11.046;2023-03-22T09:37:26;101110.81;;;15.05;76.17
42125;BME280;27787;44.594;11.046;2023-03-22T09:40:14;101108.19;;;15.04;76.67
42125;BME280;27787;44.594;11.046;2023-03-22T09:42:59;101115.22;;;15.10;76.78
42125;BME280;27787;44.594;11.046;2023-03-22T09:45:49;101108.13;;;15.15;76.11
42125;BME280;27787;44.594;11.046;2023-03-22T09:48:37;101113.44;;;15.13;75.87
42125;BME280;27787;44.594;11.046;2023-03-22T09:51:38;101107.25;;;15.10;76.04
42125;BME280;27787;44.594;11.046;2023-03-22T09:57:20;101093.03;;;15.18;76.52
42125;BME280;27787;44.594;11.046;2023-03-22T10:06:19;101088.47;;;15.39;74.42
42125;BME280;27787;44.594;11.046;2023-03-22T10:16:12;101083.03;;;15.52;75.18
42125;BME280;27787;44.594;11.046;2023-03-22T10:19:09;101075.91;;;15.63;74.72
42125;BME280;27787;44.594;11.046;2023-03-22T10:21:57;101078.53;;;15.67;74.68
42125;BME280;27787;44.594;11.046;2023-03-22T10:24:45;101081.16;;;15.70;74.73
42125;BME280;27787;44.594;11.046;2023-03-22T10:27:33;101074.00;;;15.75;74.53
42125;BME280;27787;44.594;11.046;2023-03-22T10:30:23;101077.50;;;15.81;73.50
42125;BME280;27787;44.594;11.046;2023-03-22T10:33:13;101076.53;;;15.90;70.38
42125;BME280;27787;44.594;11.046;2023-03-22T10:36:03;101072.97;;;15.88;69.14
42125;BME280;27787;44.594;11.046;2023-03-22T10:38:53;101072.94;;;15.94;72.05
42125;BME280;27787;44.594;11.046;2023-03-22T10:41:39;101075.53;;;16.00;71.47
42125;BME280;27787;44.594;11.046;2023-03-22T10:44:25;101069.31;;;16.03;72.45
42125;BME280;27787;44.594;11.046;2023-03-22T10:47:10;101063.84;;;16.13;71.83
42125;BME280;27787;44.594;11.046;2023-03-22T10:49:56;101066.50;;;16.18;71.10
42125;BME280;27787;44.594;11.046;2023-03-22T10:52:57;101068.22;;;16.22;70.54
42125;BME280;27787;44.594;11.046;2023-03-22T10:55:44;101068.16;;;16.25;69.04
42125;BME280;27787;44.594;11.046;2023-03-22T10:58:33;101069.94;;;16.29;67.65
42125;BME280;27787;44.594;11.046;2023-03-22T11:01:26;101056.59;;;16.29;68.24
42125;BME280;27787;44.594;11.046;2023-03-22T11:04:15;101058.22;;;16.42;71.05
42125;BME280;27787;44.594;11.046;2023-03-22T11:06:59;101052.72;;;16.53;71.91
42125;BME280;27787;44.594;11.046;2023-03-22T11:09:44;101053.59;;;16.58;70.10
42125;BME280;27787;44.594;11.046;2023-03-22T11:12:28;101056.28;;;16.55;70.04
42125;BME280;27787;44.594;11.046;2023-03-22T11:15:40;101050.97;;;16.55;70.36
42125;BME280;27787;44.594;11.046;2023-03-22T11:18:28;101042.06;;;16.56;70.57
42125;BME280;27787;44.594;11.046;2023-03-22T11:21:15;101043.81;;;16.57;69.23
42125;BME280;27787;44.594;11.046;2023-03-22T11:24:03;101037.56;;;16.60;68.92
42125;BME280;27787;44.594;11.046;2023-03-22T11:29:48;101036.59;;;16.70;67.30
42125;BME280;27787;44.594;11.046;2023-03-22T11:32:37;101026.72;;;16.75;67.25
42125;BME280;27787;44.594;11.046;2023-03-22T11:35:24;101028.44;;;16.79;67.65
42125;BME280;27787;44.594;11.046;2023-03-22T11:39:00;101038.16;;;16.85;67.82
42125;BME280;27787;44.594;11.046;2023-03-22T11:41:44;101026.41;;;16.98;66.93
42125;BME280;27787;44.594;11.046;2023-03-22T11:44:32;101020.13;;;17.02;65.63
42125;BME280;27787;44.594;11.046;2023-03-22T11:47:18;101017.44;;;17.02;65.59
42125;BME280;27787;44.594;11.046;2023-03-22T11:50:05;101018.34;;;17.01;64.94
42125;BME280;27787;44.594;11.046;2023-03-22T11:52:51;101008.59;;;17.00;64.61
42125;BME280;27787;44.594;11.046;2023-03-22T11:55:37;101015.59;;;17.05;62.05
42125;BME280;27787;44.594;11.046;2023-03-22T11:58:43;101010.16;;;17.13;62.28
42125;BME280;27787;44.594;11.046;2023-03-22T12:01:41;101007.50;;;17.13;62.20
42125;BME280;27787;44.594;11.046;2023-03-22T12:04:31;101003.88;;;17.17;63.06
42125;BME280;27787;44.594;11.046;2023-03-22T12:07:19;100999.41;;;17.18;61.66
42125;BME280;27787;44.594;11.046;2023-03-22T12:12:53;100990.22;;;17.37;65.69
42125;BME280;27787;44.594;11.046;2023-03-22T12:15:41;100980.41;;;17.37;63.39
42125;BME280;27787;44.594;11.046;2023-03-22T12:19:02;100975.03;;;17.40;64.88
42125;BME280;27787;44.594;11.046;2023-03-22T12:21:48;100971.44;;;17.42;64.47
42125;BME280;27787;44.594;11.046;2023-03-22T12:24:33;100974.94;;;17.47;65.93
42125;BME280;27787;44.594;11.046;2023-03-22T12:27:21;100969.56;;;17.48;65.66
42125;BME280;27787;44.594;11.046;2023-03-22T12:30:38;100964.22;;;17.48;65.32
42125;BME280;27787;44.594;11.046;2023-03-22T12:33:24;100956.16;;;17.51;65.77
42125;BME280;27787;44.594;11.046;2023-03-22T12:36:12;100950.69;;;17.59;64.83
42125;BME280;27787;44.594;11.046;2023-03-22T12:38:59;100950.53;;;17.66;65.05
42125;BME280;27787;44.594;11.046;2023-03-22T12:41:47;100950.44;;;17.74;65.00
42125;BME280;27787;44.594;11.046;2023-03-22T12:44:37;100946.78;;;17.78;64.54
42125;BME280;27787;44.594;11.046;2023-03-22T12:47:34;100945.88;;;17.79;64.61
42125;BME280;27787;44.594;11.046;2023-03-22T12:50:35;100936.94;;;17.80;65.27
42125;BME280;27787;44.594;11.046;2023-03-22T12:53:21;100939.59;;;17.82;63.89
42125;BME280;27787;44.594;11.046;2023-03-22T12:56:21;100936.81;;;17.88;63.44
42125;BME280;27787;44.594;11.046;2023-03-22T12:59:15;100934.88;;;17.94;63.21
42125;BME280;27787;44.594;11.046;2023-03-22T13:02:11;100935.66;;;18.01;62.92
42125;BME280;27787;44.594;11.046;2023-03-22T13:05:05;100932.03;;;18.04;60.93
42125;BME280;27787;44.594;11.046;2023-03-22T13:07:51;100932.81;;;18.09;60.45
42125;BME280;27787;44.594;11.046;2023-03-22T13:10:39;100933.50;;;18.18;61.27
42125;BME280;27787;44.594;11.046;2023-03-22T13:18:57;100917.25;;;18.29;61.10
42125;BME280;27787;44.594;11.046;2023-03-22T13:21:41;100922.38;;;18.38;61.22
42125;BME280;27787;44.594;11.046;2023-03-22T13:24:26;100917.78;;;18.45;61.09
42125;BME280;27787;44.594;11.046;2023-03-22T13:27:11;100915.91;;;18.48;62.19
42125;BME280;27787;44.594;11.046;2023-03-22T13:29:58;100912.22;;;18.54;62.91
42125;BME280;27787;44.594;11.046;2023-03-22T13:33:32;100905.91;;;18.56;62.61
42125;BME280;27787;44.594;11.046;2023-03-22T13:38:58;100901.25;;;18.68;61.50
42125;BME280;27787;44.594;11.046;2023-03-22T13:41:48;100903.75;;;18.75;61.06
42125;BME280;27787;44.594;11.046;2023-03-22T13:44:37;100900.94;;;18.80;59.23
42125;BME280;27787;44.594;11.046;2023-03-22T13:47:37;100904.41;;;18.83;58.83
42125;BME280;27787;44.594;11.046;2023-03-22T13:50:28;100900.72;;;18.89;58.62
42125;BME280;27787;44.594;11.046;2023-03-22T13:53:21;100892.63;;;18.92;56.82
42125;BME280;27787;44.594;11.046;2023-03-22T13:59:24;100891.31;;;19.08;55.34
42125;BME280;27787;44.594;11.046;2023-03-22T14:02:28;100884.91;;;19.15;53.54
42125;BME280;27787;44.594;11.046;2023-03-22T14:05:20;100887.44;;;19.20;52.62
42125;BME280;27787;44.594;11.046;2023-03-22T14:08:22;100877.44;;;19.27;52.04
42125;BME280;27787;44.594;11.046;2023-03-22T14:11:51;100864.75;;;19.35;51.36
42125;BME280;27787;44.594;11.046;2023-03-22T14:14:41;100874.41;;;19.40;49.49
42125;BME280;27787;44.594;11.046;2023-03-22T14:17:37;100862.59;;;19.48;48.70
42125;BME280;27787;44.594;11.046;2023-03-22T14:20:24;100864.09;;;19.59;47.75
42125;BME280;27787;44.594;11.046;2023-03-22T14:23:22;100854.13;;;19.64;46.17
42125;BME280;27787;44.594;11.046;2023-03-22T14:26:16;100848.56;;;19.72;45.75
42125;BME280;27787;44.594;11.046;2023-03-22T14:29:19;100845.41;;;19.87;47.16
42125;BME280;27787;44.594;11.046;2023-03-22T14:32:04;100847.78;;;19.98;47.70
42125;BME280;27787;44.594;11.046;2023-03-22T14:34:51;100842.94;;;20.11;47.52
42125;BME280;27787;44.594;11.046;2023-03-22T14:37:40;100838.25;;;20.17;46.89
42125;BME280;27787;44.594;11.046;2023-03-22T14:40:33;100834.34;;;20.27;46.98
42125;BME280;27787;44.594;11.046;2023-03-22T14:48:59;100825.69;;;20.49;45.69
42125;BME280;27787;44.594;11.046;2023-03-22T14:51:46;100821.03;;;20.54;45.13
42125;BME280;27787;44.594;11.046;2023-03-22T14:54:32;100813.78;;;20.57;44.12
42125;BME280;27787;44.594;11.046;2023-03-22T14:57:21;100818.94;;;20.64;44.70
42125;BME280;27787;44.594;11.046;2023-03-22T15:00:10;100811.28;;;20.78;46.01
42125;BME280;27787;44.594;11.046;2023-03-22T15:03:13;100811.13;;;20.82;46.14
42125;BME280;27787;44.594;11.046;2023-03-22T15:06:07;100810.94;;;20.88;46.09
42125;BME280;27787;44.594;11.046;2023-03-22T15:08:52;100802.59;;;20.96;45.32
42125;BME280;27787;44.594;11.046;2023-03-22T15:11:38;100798.03;;;21.00;44.95
42125;BME280;27787;44.594;11.046;2023-03-22T15:14:23;100802.34;;;21.04;44.80
42125;BME280;27787;44.594;11.046;2023-03-22T15:17:11;100800.22;;;21.13;44.82
42125;BME280;27787;44.594;11.046;2023-03-22T15:19:57;100801.72;;;21.20;44.51
42125;BME280;27787;44.594;11.046;2023-03-22T15:22:56;100800.50;;;21.31;44.49
42125;BME280;27787;44.594;11.046;2023-03-22T15:25:48;100800.25;;;21.38;44.16
42125;BME280;27787;44.594;11.046;2023-03-22T15:28:38;100796.44;;;21.44;43.76
42125;BME280;27787;44.594;11.046;2023-03-22T15:31:29;100796.63;;;21.39;43.22
42125;BME280;27787;44.594;11.046;2023-03-22T15:34:23;100798.31;;;21.42;43.18
42125;BME280;27787;44.594;11.046;2023-03-22T15:37:24;100796.50;;;21.42;43.25
42125;BME280;27787;44.594;11.046;2023-03-22T15:40:29;100796.22;;;21.50;42.84
42125;BME280;27787;44.594;11.046;2023-03-22T15:43:22;100796.31;;;21.47;42.43
42125;BME280;27787;44.594;11.046;2023-03-22T15:49:00;100787.09;;;21.54;42.53
42125;BME280;27787;44.594;11.046;2023-03-22T15:52:09;100790.53;;;21.58;42.63
42125;BME280;27787;44.594;11.046;2023-03-22T15:55:02;100787.88;;;21.58;42.63
42125;BME280;27787;44.594;11.046;2023-03-22T15:57:52;100792.16;;;21.63;42.84